createdAt,value
2022-12-17T00:00:49.175Z,-3.03
2022-12-17T00:05:52.814Z,-3.12
2022-12-17T00:10:58.927Z,-3.08
2022-12-17T00:16:00.402Z,-3.12
2022-12-17T00:21:02.460Z,-3.05
2022-12-17T00:26:04.048Z,-3.18
2022-12-17T00:31:05.783Z,-2.99
2022-12-17T00:36:07.573Z,-3.15
2022-12-17T00:41:09.107Z,-3.12
2022-12-17T00:46:11.293Z,-3.03
2022-12-17T00:51:12.787Z,-3.07
2022-12-17T00:56:14.471Z,-3.02
2022-12-17T01:01:16.164Z,-3.11
2022-12-17T01:06:17.788Z,-3.05
2022-12-17T01:11:19.311Z,-2.89
2022-12-17T01:16:20.903Z,-2.92
2022-12-17T01:21:22.544Z,-3.35
2022-12-17T01:26:24.102Z,-3.34
2022-12-17T01:31:29.065Z,-3.48
2022-12-17T01:36:33.131Z,-3.35
2022-12-17T01:41:34.613Z,-2.97
2022-12-17T01:46:40.681Z,-3.18
2022-12-17T01:51:42.470Z,-3.12
2022-12-17T01:56:44.881Z,-3.00
2022-12-17T02:01:46.722Z,-3.06
2022-12-17T02:07:01.705Z,-2.96
2022-12-17T02:12:12.452Z,-3.15
2022-12-17T02:17:25.361Z,-3.08
2022-12-17T02:22:39.608Z,-3.11
2022-12-17T02:27:41.193Z,-3.25
2022-12-17T02:32:46.144Z,-3.06
2022-12-17T02:37:48.653Z,-2.95
2022-12-17T02:42:50.386Z,-2.63
2022-12-17T02:47:52.362Z,-3.00
2022-12-17T02:52:55.639Z,-3.40
2022-12-17T02:57:58.183Z,-3.16
2022-12-17T03:02:59.685Z,-2.72
2022-12-17T03:08:01.165Z,-2.66
2022-12-17T03:13:02.856Z,-2.50
2022-12-17T03:18:04.321Z,-2.37
2022-12-17T03:23:08.867Z,-2.85
2022-12-17T03:28:11.972Z,-2.49
2022-12-17T03:33:13.567Z,-2.46
2022-12-17T03:38:15.024Z,-2.50
2022-12-17T03:43:16.672Z,-2.50
2022-12-17T03:48:18.328Z,-2.80
2022-12-17T03:53:19.964Z,-2.56
2022-12-17T03:58:21.524Z,-2.69
2022-12-17T04:03:23.116Z,-2.73
2022-12-17T04:08:24.875Z,-2.44
2022-12-17T04:13:26.383Z,-2.42
2022-12-17T04:18:27.944Z,-2.68
2022-12-17T04:23:29.497Z,-2.47
2022-12-17T04:28:31.141Z,-2.29
2022-12-17T04:33:32.798Z,-2.45
2022-12-17T04:38:34.544Z,-2.50
2022-12-17T04:43:36.313Z,-2.47
2022-12-17T04:48:38.169Z,-2.63
2022-12-17T04:53:39.776Z,-2.87
2022-12-17T04:58:41.410Z,-2.94
2022-12-17T05:03:42.926Z,-2.80
2022-12-17T05:08:44.825Z,-2.72
2022-12-17T05:13:46.556Z,-2.70
2022-12-17T05:18:48.210Z,-2.70
2022-12-17T05:23:49.753Z,-2.61
2022-12-17T05:28:51.884Z,-2.64
2022-12-17T05:33:53.354Z,-2.49
2022-12-17T05:38:54.870Z,-2.60
2022-12-17T05:43:56.350Z,-2.62
2022-12-17T05:48:57.974Z,-2.56
2022-12-17T05:53:59.536Z,-2.90
2022-12-17T05:59:01.106Z,-2.93
2022-12-17T06:04:03.107Z,-2.62
2022-12-17T06:09:04.628Z,-2.67
2022-12-17T06:14:06.130Z,-2.92
2022-12-17T06:19:07.691Z,-3.02
2022-12-17T06:24:09.248Z,-3.16
2022-12-17T06:29:10.808Z,-3.27
2022-12-17T06:34:12.360Z,-3.41
2022-12-17T06:39:13.860Z,-3.46
2022-12-17T06:44:15.427Z,-3.50
2022-12-17T06:49:17.008Z,-3.43
2022-12-17T06:54:18.497Z,-2.89
2022-12-17T06:59:20.068Z,-3.18
2022-12-17T07:04:21.476Z,-3.48
2022-12-17T07:09:22.988Z,-3.27
2022-12-17T07:14:24.756Z,-3.60
2022-12-17T07:19:27.597Z,-3.70
2022-12-17T07:24:29.403Z,-3.61
2022-12-17T07:29:30.936Z,-3.88
2022-12-17T07:34:32.427Z,-4.48
2022-12-17T07:39:33.908Z,-3.86
2022-12-17T07:44:35.529Z,-3.89
2022-12-17T07:49:36.968Z,-4.07
2022-12-17T07:54:38.711Z,-3.64
2022-12-17T07:59:40.265Z,-3.47
2022-12-17T08:04:41.906Z,-4.12
2022-12-17T08:09:43.381Z,-4.07
2022-12-17T08:14:44.954Z,-3.60
2022-12-17T08:19:46.464Z,-3.58
2022-12-17T08:24:47.971Z,-3.79
2022-12-17T08:29:49.702Z,-3.83
2022-12-17T08:34:51.221Z,-3.53
2022-12-17T08:39:52.689Z,-3.40
2022-12-17T08:44:54.154Z,-3.24
2022-12-17T08:49:55.610Z,-3.67
2022-12-17T08:54:57.126Z,-4.03
2022-12-17T08:59:58.743Z,-3.87
2022-12-17T09:05:00.313Z,-3.91
2022-12-17T09:10:01.824Z,-3.88
2022-12-17T09:15:03.654Z,-3.68
2022-12-17T09:20:05.644Z,-3.57
2022-12-17T09:25:07.578Z,-3.99
2022-12-17T09:30:09.692Z,-3.51
2022-12-17T09:35:11.288Z,-3.33
2022-12-17T09:40:20.879Z,-3.46
2022-12-17T09:45:31.611Z,-3.68
2022-12-17T09:50:33.843Z,-3.42
2022-12-17T09:55:46.101Z,-3.58
2022-12-17T10:01:00.862Z,-3.61
2022-12-17T10:06:25.387Z,-3.76
2022-12-17T10:11:34.164Z,-3.50
2022-12-17T10:16:45.765Z,-3.34
2022-12-17T10:21:47.227Z,-3.08
2022-12-17T10:26:49.185Z,-2.87
2022-12-17T10:31:51.031Z,-3.25
2022-12-17T10:36:53.682Z,-3.15
2022-12-17T11:25:48.156Z,-3.43
2022-12-17T11:30:58.290Z,-3.10
2022-12-17T11:36:11.276Z,-3.15
2022-12-17T11:41:12.640Z,-2.80
2022-12-17T11:46:26.253Z,-2.82
2022-12-17T11:51:32.777Z,-3.18
2022-12-17T11:56:58.728Z,-3.25
2022-12-17T12:02:24.543Z,-3.25
2022-12-17T12:07:42.572Z,-2.82
2022-12-17T12:13:04.218Z,-2.88
2022-12-17T12:18:09.958Z,-2.86
2022-12-17T12:23:30.467Z,-3.06
2022-12-17T12:28:52.539Z,-2.86
2022-12-17T12:34:00.576Z,-2.66
2022-12-17T12:39:01.998Z,-2.83
2022-12-17T12:44:18.401Z,-2.81
2022-12-17T12:49:28.968Z,-2.66
2022-12-17T12:54:33.092Z,-2.59
2022-12-17T12:59:35.256Z,-2.40
2022-12-17T13:04:36.964Z,-2.42
2022-12-17T13:09:49.653Z,-2.16
2022-12-17T13:15:06.286Z,-2.33
2022-12-17T13:20:30.463Z,-2.36
2022-12-17T13:25:31.991Z,-2.30
2022-12-17T13:30:37.926Z,-2.23
2022-12-17T13:35:43.258Z,-2.29
2022-12-17T13:41:17.067Z,-2.16
2022-12-17T13:46:24.898Z,-2.32
2022-12-17T13:51:30.399Z,-2.20
2022-12-17T13:56:35.941Z,-2.30
2022-12-17T14:01:46.610Z,-2.41
2022-12-17T14:06:48.418Z,-2.54
2022-12-17T14:11:51.700Z,-2.50
2022-12-17T14:16:53.351Z,-2.57
2022-12-17T14:21:55.980Z,-2.55
2022-12-17T14:26:59.836Z,-2.56
2022-12-17T14:32:03.005Z,-2.67
2022-12-17T14:37:04.514Z,-2.67
2022-12-17T14:42:17.032Z,-2.78
2022-12-17T14:47:20.068Z,-2.78
2022-12-17T14:52:35.248Z,-2.94
2022-12-17T14:57:36.745Z,-2.92
2022-12-17T15:02:38.390Z,-3.13
2022-12-17T15:07:40.484Z,-3.08
2022-12-17T15:12:42.769Z,-3.20
2022-12-17T15:17:44.620Z,-3.22
2022-12-17T15:22:47.116Z,-3.34
2022-12-17T15:27:48.625Z,-3.43
2022-12-17T15:32:50.062Z,-3.59
2022-12-17T15:37:51.566Z,-3.57
2022-12-17T15:42:53.038Z,-3.54
2022-12-17T15:47:54.540Z,-3.61
2022-12-17T15:52:55.971Z,-3.71
2022-12-17T15:57:57.881Z,-3.62
2022-12-17T16:03:02.301Z,-3.90
2022-12-17T16:08:03.847Z,-3.98
2022-12-17T16:13:05.348Z,-3.98
2022-12-17T16:18:06.828Z,-4.33
2022-12-17T16:23:08.397Z,-4.25
2022-12-17T16:28:09.970Z,-4.47
2022-12-17T16:33:11.463Z,-4.38
2022-12-17T16:38:13.018Z,-4.23
2022-12-17T16:43:14.550Z,-4.84
2022-12-17T16:48:16.995Z,-4.57
2022-12-17T16:53:19.516Z,-4.37
2022-12-17T16:58:21.002Z,-4.53
2022-12-17T17:03:22.717Z,-4.79
2022-12-17T17:08:24.336Z,-4.66
2022-12-17T17:13:25.827Z,-4.70
2022-12-17T17:18:27.351Z,-4.69
2022-12-17T17:23:28.852Z,-4.74
2022-12-17T17:28:30.318Z,-4.76
2022-12-17T17:33:33.898Z,-5.21
2022-12-17T17:38:38.002Z,-4.97
2022-12-17T17:43:39.882Z,-5.05
2022-12-17T17:48:42.516Z,-4.76
2022-12-17T17:53:45.552Z,-5.15
2022-12-17T17:58:49.624Z,-5.17
2022-12-17T18:03:51.774Z,-5.29
2022-12-17T18:08:56.783Z,-5.25
2022-12-17T18:13:59.812Z,-5.32
2022-12-17T18:19:10.348Z,-5.54
2022-12-17T18:24:13.157Z,-5.42
2022-12-17T18:29:23.886Z,-5.42
2022-12-17T18:34:25.411Z,-5.50
2022-12-17T18:39:26.885Z,-5.52
2022-12-17T18:44:29.928Z,-5.30
2022-12-17T18:49:31.405Z,-5.21
2022-12-17T18:54:33.120Z,-5.44
2022-12-17T18:59:34.742Z,-5.58
2022-12-17T19:04:37.993Z,-5.41
2022-12-17T19:09:39.528Z,-5.49
2022-12-17T19:14:41.121Z,-5.51
2022-12-17T19:19:42.530Z,-5.71
2022-12-17T19:24:44.037Z,-5.67
2022-12-17T19:29:49.436Z,-5.45
2022-12-17T19:34:51.568Z,-5.27
2022-12-17T19:39:53.024Z,-5.55
2022-12-17T19:44:55.009Z,-5.61
2022-12-17T19:49:56.726Z,-5.66
2022-12-17T19:54:58.279Z,-5.63
2022-12-17T19:59:59.702Z,-5.41
2022-12-17T20:05:01.399Z,-5.47
2022-12-17T20:10:03.119Z,-5.89
2022-12-17T20:15:05.124Z,-5.78
2022-12-17T20:20:07.180Z,-5.82
2022-12-17T20:25:08.859Z,-5.82
2022-12-17T20:30:10.676Z,-5.72
2022-12-17T20:35:12.179Z,-5.83
2022-12-17T20:40:13.677Z,-5.64
2022-12-17T20:45:16.067Z,-5.77
2022-12-17T20:50:17.669Z,-5.67
2022-12-17T20:55:19.465Z,-5.80
2022-12-17T21:00:20.902Z,-5.85
2022-12-17T21:05:23.201Z,-6.02
2022-12-17T21:10:24.650Z,-5.98
2022-12-17T21:15:27.567Z,-6.02
2022-12-17T21:20:29.021Z,-6.05
2022-12-17T21:25:31.013Z,-6.16
2022-12-17T21:30:36.680Z,-6.32
2022-12-17T21:35:38.152Z,-6.21
2022-12-17T21:40:39.655Z,-6.22
2022-12-17T21:45:41.681Z,-6.35
2022-12-17T21:50:45.203Z,-6.30
2022-12-17T21:55:47.884Z,-6.33
2022-12-17T22:00:49.753Z,-6.10
2022-12-17T22:05:51.229Z,-6.29
2022-12-17T22:10:52.946Z,-6.32
2022-12-17T22:15:55.524Z,-6.25
2022-12-17T22:20:59.324Z,-6.21
2022-12-17T22:26:01.057Z,-6.45
2022-12-17T22:31:06.774Z,-6.42
2022-12-17T22:37:36.249Z,-6.20
2022-12-17T22:44:35.015Z,-6.62
2022-12-17T22:46:52.983Z,-6.65
2022-12-17T22:51:54.545Z,-6.53
2022-12-17T22:57:34.739Z,-6.70
2022-12-17T23:02:17.570Z,-6.61
2022-12-17T23:07:19.383Z,-6.45
2022-12-17T23:12:20.881Z,-6.53
2022-12-17T23:17:22.312Z,-6.47
2022-12-17T23:22:23.791Z,-6.58
2022-12-17T23:27:25.360Z,-6.38
2022-12-17T23:32:26.865Z,-6.60
2022-12-17T23:37:28.423Z,-6.55
2022-12-17T23:42:30.034Z,-6.42
2022-12-17T23:47:31.910Z,-6.48
2022-12-17T23:52:33.735Z,-6.21
2022-12-17T23:57:35.189Z,-6.50
